sensor_id;sensor_type;location;lat;lon;timestamp;P1;durP1;ratioP1;P2;durP2;ratioP2
6378;SDS011;3222;48.858;10.128;2023-07-02T00:01:41;2.67;;;1.77;;
6378;SDS011;3222;48.858;10.128;2023-07-02T00:04:07;2.83;;;1.90;;
6378;SDS011;3222;48.858;10.128;2023-07-02T00:06:39;2.40;;;2.20;;
6378;SDS011;3222;48.858;10.128;2023-07-02T00:09:05;2.00;;;1.90;;
6378;SDS011;3222;48.858;10.128;2023-07-02T00:11:32;2.87;;;1.87;;
6378;SDS011;3222;48.858;10.128;2023-07-02T00:13:58;2.20;;;2.00;;
6378;SDS011;3222;48.858;10.128;2023-07-02T00:16:23;2.00;;;1.80;;
6378;SDS011;3222;48.858;10.128;2023-07-02T00:18:49;2.03;;;1.93;;
6378;SDS011;3222;48.858;10.128;2023-07-02T00:21:20;2.60;;;2.40;;
6378;SDS011;3222;48.858;10.128;2023-07-02T00:23:47;2.60;;;2.40;;
6378;SDS011;3222;48.858;10.128;2023-07-02T00:26:12;5.17;;;3.07;;
6378;SDS011;3222;48.858;10.128;2023-07-02T00:28:38;4.40;;;3.20;;
6378;SDS011;3222;48.858;10.128;2023-07-02T00:31:05;4.97;;;3.03;;
6378;SDS011;3222;48.858;10.128;2023-07-02T00:33:33;2.80;;;2.60;;
6378;SDS011;3222;48.858;10.128;2023-07-02T00:35:59;2.73;;;2.40;;
6378;SDS011;3222;48.858;10.128;2023-07-02T00:38:25;2.43;;;2.23;;
6378;SDS011;3222;48.858;10.128;2023-07-02T00:40:52;3.03;;;2.60;;
6378;SDS011;3222;48.858;10.128;2023-07-02T00:43:17;3.30;;;3.00;;
6378;SDS011;3222;48.858;10.128;2023-07-02T00:45:44;4.20;;;2.73;;
6378;SDS011;3222;48.858;10.128;2023-07-02T00:48:10;3.10;;;2.80;;
6378;SDS011;3222;48.858;10.128;2023-07-02T00:50:36;3.70;;;2.90;;
6378;SDS011;3222;48.858;10.128;2023-07-02T00:53:02;2.80;;;2.60;;
6378;SDS011;3222;48.858;10.128;2023-07-02T00:55:28;5.87;;;2.40;;
6378;SDS011;3222;48.858;10.128;2023-07-02T00:57:54;3.30;;;2.30;;
6378;SDS011;3222;48.858;10.128;2023-07-02T01:00:22;2.60;;;2.40;;
6378;SDS011;3222;48.858;10.128;2023-07-02T01:02:54;2.63;;;2.20;;
6378;SDS011;3222;48.858;10.128;2023-07-02T01:05:27;2.63;;;2.43;;
6378;SDS011;3222;48.858;10.128;2023-07-02T01:08:06;5.23;;;2.60;;
6378;SDS011;3222;48.858;10.128;2023-07-02T01:10:32;2.50;;;2.30;;
6378;SDS011;3222;48.858;10.128;2023-07-02T01:13:00;2.40;;;2.20;;
6378;SDS011;3222;48.858;10.128;2023-07-02T01:15:31;2.90;;;2.60;;
6378;SDS011;3222;48.858;10.128;2023-07-02T01:17:58;3.30;;;2.83;;
6378;SDS011;3222;48.858;10.128;2023-07-02T01:20:24;2.87;;;2.57;;
6378;SDS011;3222;48.858;10.128;2023-07-02T01:22:52;3.43;;;3.13;;
6378;SDS011;3222;48.858;10.128;2023-07-02T01:25:18;4.10;;;2.77;;
6378;SDS011;3222;48.858;10.128;2023-07-02T01:27:50;2.70;;;2.50;;
6378;SDS011;3222;48.858;10.128;2023-07-02T01:30:16;6.03;;;2.40;;
6378;SDS011;3222;48.858;10.128;2023-07-02T01:32:43;3.77;;;2.57;;
6378;SDS011;3222;48.858;10.128;2023-07-02T01:35:09;2.60;;;2.30;;
6378;SDS011;3222;48.858;10.128;2023-07-02T01:37:35;3.20;;;2.47;;
6378;SDS011;3222;48.858;10.128;2023-07-02T01:40:03;2.40;;;2.20;;
6378;SDS011;3222;48.858;10.128;2023-07-02T01:42:31;2.27;;;2.07;;
6378;SDS011;3222;48.858;10.128;2023-07-02T01:44:57;3.20;;;2.87;;
6378;SDS011;3222;48.858;10.128;2023-07-02T01:47:24;2.47;;;2.27;;
6378;SDS011;3222;48.858;10.128;2023-07-02T01:49:50;2.40;;;2.20;;
6378;SDS011;3222;48.858;10.128;2023-07-02T01:52:16;2.40;;;2.20;;
6378;SDS011;3222;48.858;10.128;2023-07-02T01:54:43;3.67;;;3.37;;
6378;SDS011;3222;48.858;10.128;2023-07-02T01:57:09;4.03;;;2.77;;
6378;SDS011;3222;48.858;10.128;2023-07-02T01:59:35;3.23;;;2.93;;
6378;SDS011;3222;48.858;10.128;2023-07-02T02:02:00;2.57;;;2.37;;
6378;SDS011;3222;48.858;10.128;2023-07-02T02:04:27;5.50;;;2.93;;
6378;SDS011;3222;48.858;10.128;2023-07-02T02:06:53;2.57;;;2.23;;
6378;SDS011;3222;48.858;10.128;2023-07-02T02:09:19;2.70;;;2.50;;
6378;SDS011;3222;48.858;10.128;2023-07-02T02:11:46;3.60;;;2.60;;
6378;SDS011;3222;48.858;10.128;2023-07-02T02:14:16;2.50;;;2.20;;
6378;SDS011;3222;48.858;10.128;2023-07-02T02:16:42;3.60;;;2.57;;
6378;SDS011;3222;48.858;10.128;2023-07-02T02:19:11;2.87;;;2.40;;
6378;SDS011;3222;48.858;10.128;2023-07-02T02:21:38;3.20;;;2.50;;
6378;SDS011;3222;48.858;10.128;2023-07-02T02:24:05;2.87;;;2.63;;
6378;SDS011;3222;48.858;10.128;2023-07-02T02:26:32;2.70;;;2.50;;
6378;SDS011;3222;48.858;10.128;2023-07-02T02:28:58;2.93;;;2.73;;
6378;SDS011;3222;48.858;10.128;2023-07-02T02:31:24;4.00;;;3.60;;
6378;SDS011;3222;48.858;10.128;2023-07-02T02:33:50;3.40;;;3.10;;
6378;SDS011;3222;48.858;10.128;2023-07-02T02:36:16;3.47;;;3.13;;
6378;SDS011;3222;48.858;10.128;2023-07-02T02:38:42;6.60;;;2.90;;
6378;SDS011;3222;48.858;10.128;2023-07-02T02:41:08;3.00;;;2.80;;
6378;SDS011;3222;48.858;10.128;2023-07-02T02:43:41;2.60;;;2.40;;
6378;SDS011;3222;48.858;10.128;2023-07-02T02:46:08;4.53;;;2.83;;
6378;SDS011;3222;48.858;10.128;2023-07-02T02:48:35;3.47;;;2.60;;
6378;SDS011;3222;48.858;10.128;2023-07-02T02:51:00;3.57;;;2.73;;
6378;SDS011;3222;48.858;10.128;2023-07-02T02:53:26;2.33;;;2.20;;
6378;SDS011;3222;48.858;10.128;2023-07-02T02:55:52;3.07;;;2.53;;
6378;SDS011;3222;48.858;10.128;2023-07-02T02:58:18;2.47;;;2.27;;
6378;SDS011;3222;48.858;10.128;2023-07-02T03:00:44;2.67;;;2.37;;
6378;SDS011;3222;48.858;10.128;2023-07-02T03:03:14;3.20;;;2.57;;
6378;SDS011;3222;48.858;10.128;2023-07-02T03:05:39;4.00;;;2.40;;
6378;SDS011;3222;48.858;10.128;2023-07-02T03:08:05;3.77;;;2.80;;
6378;SDS011;3222;48.858;10.128;2023-07-02T03:10:31;2.77;;;2.57;;
6378;SDS011;3222;48.858;10.128;2023-07-02T03:12:58;5.70;;;3.23;;
6378;SDS011;3222;48.858;10.128;2023-07-02T03:15:25;3.60;;;2.70;;
6378;SDS011;3222;48.858;10.128;2023-07-02T03:17:51;2.90;;;2.60;;
6378;SDS011;3222;48.858;10.128;2023-07-02T03:20:17;4.90;;;3.50;;
6378;SDS011;3222;48.858;10.128;2023-07-02T03:22:43;4.77;;;3.57;;
6378;SDS011;3222;48.858;10.128;2023-07-02T03:25:09;4.90;;;3.47;;
6378;SDS011;3222;48.858;10.128;2023-07-02T03:27:35;5.23;;;3.40;;
6378;SDS011;3222;48.858;10.128;2023-07-02T03:30:00;2.93;;;2.60;;
6378;SDS011;3222;48.858;10.128;2023-07-02T03:32:26;6.03;;;3.80;;
6378;SDS011;3222;48.858;10.128;2023-07-02T03:34:52;6.73;;;4.33;;
6378;SDS011;3222;48.858;10.128;2023-07-02T03:37:18;8.10;;;4.23;;
6378;SDS011;3222;48.858;10.128;2023-07-02T03:39:43;6.87;;;3.40;;
6378;SDS011;3222;48.858;10.128;2023-07-02T03:42:09;4.53;;;3.30;;
6378;SDS011;3222;48.858;10.128;2023-07-02T03:44:35;6.63;;;4.13;;
6378;SDS011;3222;48.858;10.128;2023-07-02T03:47:01;5.63;;;3.90;;
6378;SDS011;3222;48.858;10.128;2023-07-02T03:49:27;7.10;;;4.13;;
6378;SDS011;3222;48.858;10.128;2023-07-02T03:51:54;6.80;;;3.83;;
6378;SDS011;3222;48.858;10.128;2023-07-02T03:54:21;4.40;;;2.90;;
6378;SDS011;3222;48.858;10.128;2023-07-02T03:56:47;3.67;;;2.63;;
6378;SDS011;3222;48.858;10.128;2023-07-02T03:59:13;4.50;;;2.57;;
6378;SDS011;3222;48.858;10.128;2023-07-02T04:01:39;4.83;;;2.80;;
6378;SDS011;3222;48.858;10.128;2023-07-02T04:04:05;3.57;;;2.80;;
6378;SDS011;3222;48.858;10.128;2023-07-02T04:06:31;4.20;;;3.03;;
6378;SDS011;3222;48.858;10.128;2023-07-02T04:08:57;2.53;;;2.33;;
6378;SDS011;3222;48.858;10.128;2023-07-02T04:11:23;4.83;;;2.90;;
6378;SDS011;3222;48.858;10.128;2023-07-02T04:13:49;3.20;;;2.90;;
6378;SDS011;3222;48.858;10.128;2023-07-02T04:16:14;5.90;;;3.10;;
6378;SDS011;3222;48.858;10.128;2023-07-02T04:18:40;3.13;;;2.60;;
6378;SDS011;3222;48.858;10.128;2023-07-02T04:21:06;2.97;;;2.60;;
6378;SDS011;3222;48.858;10.128;2023-07-02T04:23:32;2.80;;;2.50;;
6378;SDS011;3222;48.858;10.128;2023-07-02T04:25:58;5.87;;;2.77;;
6378;SDS011;3222;48.858;10.128;2023-07-02T04:28:24;7.40;;;2.50;;
6378;SDS011;3222;48.858;10.128;2023-07-02T04:30:50;2.70;;;2.43;;
6378;SDS011;3222;48.858;10.128;2023-07-02T04:33:18;5.43;;;2.63;;
6378;SDS011;3222;48.858;10.128;2023-07-02T04:35:44;3.80;;;2.70;;
6378;SDS011;3222;48.858;10.128;2023-07-02T04:38:10;3.37;;;2.63;;
6378;SDS011;3222;48.858;10.128;2023-07-02T04:40:37;7.13;;;2.90;;
6378;SDS011;3222;48.858;10.128;2023-07-02T04:43:03;3.67;;;2.60;;
6378;SDS011;3222;48.858;10.128;2023-07-02T04:45:30;2.80;;;2.60;;
6378;SDS011;3222;48.858;10.128;2023-07-02T04:48:02;3.00;;;2.70;;
6378;SDS011;3222;48.858;10.128;2023-07-02T04:50:29;3.27;;;2.70;;
6378;SDS011;3222;48.858;10.128;2023-07-02T04:52:54;3.27;;;2.97;;
6378;SDS011;3222;48.858;10.128;2023-07-02T04:55:20;4.63;;;3.23;;
6378;SDS011;3222;48.858;10.128;2023-07-02T04:57:46;4.87;;;3.00;;
6378;SDS011;3222;48.858;10.128;2023-07-02T05:00:12;5.23;;;3.13;;
6378;SDS011;3222;48.858;10.128;2023-07-02T05:02:39;4.93;;;3.53;;
6378;SDS011;3222;48.858;10.128;2023-07-02T05:05:06;4.27;;;3.23;;
6378;SDS011;3222;48.858;10.128;2023-07-02T05:07:32;5.03;;;3.40;;
6378;SDS011;3222;48.858;10.128;2023-07-02T05:09:58;4.30;;;3.60;;
6378;SDS011;3222;48.858;10.128;2023-07-02T05:12:24;5.47;;;3.60;;
6378;SDS011;3222;48.858;10.128;2023-07-02T05:14:49;4.63;;;3.93;;
6378;SDS011;3222;48.858;10.128;2023-07-02T05:17:15;4.70;;;3.30;;
6378;SDS011;3222;48.858;10.128;2023-07-02T05:19:41;4.83;;;3.67;;
6378;SDS011;3222;48.858;10.128;2023-07-02T05:22:07;5.20;;;3.60;;
6378;SDS011;3222;48.858;10.128;2023-07-02T05:24:34;4.20;;;3.70;;
6378;SDS011;3222;48.858;10.128;2023-07-02T05:26:59;6.20;;;4.27;;
6378;SDS011;3222;48.858;10.128;2023-07-02T05:29:26;7.27;;;5.07;;
6378;SDS011;3222;48.858;10.128;2023-07-02T05:31:53;10.23;;;5.63;;
6378;SDS011;3222;48.858;10.128;2023-07-02T05:34:18;7.07;;;4.83;;
6378;SDS011;3222;48.858;10.128;2023-07-02T05:36:44;6.53;;;4.17;;
6378;SDS011;3222;48.858;10.128;2023-07-02T05:39:10;7.03;;;4.60;;
6378;SDS011;3222;48.858;10.128;2023-07-02T05:41:35;8.17;;;4.73;;
6378;SDS011;3222;48.858;10.128;2023-07-02T05:44:01;8.83;;;4.80;;
6378;SDS011;3222;48.858;10.128;2023-07-02T05:46:27;10.03;;;5.60;;
6378;SDS011;3222;48.858;10.128;2023-07-02T05:48:53;8.07;;;5.37;;
6378;SDS011;3222;48.858;10.128;2023-07-02T05:51:25;7.83;;;4.93;;
6378;SDS011;3222;48.858;10.128;2023-07-02T05:53:51;7.93;;;5.77;;
6378;SDS011;3222;48.858;10.128;2023-07-02T05:56:17;11.13;;;5.93;;
6378;SDS011;3222;48.858;10.128;2023-07-02T05:58:44;12.87;;;6.83;;
6378;SDS011;3222;48.858;10.128;2023-07-02T06:01:11;10.47;;;6.57;;
6378;SDS011;3222;48.858;10.128;2023-07-02T06:03:37;8.83;;;6.30;;
6378;SDS011;3222;48.858;10.128;2023-07-02T06:06:03;15.17;;;7.50;;
6378;SDS011;3222;48.858;10.128;2023-07-02T06:08:29;8.80;;;6.60;;
6378;SDS011;3222;48.858;10.128;2023-07-02T06:10:54;9.90;;;6.33;;
6378;SDS011;3222;48.858;10.128;2023-07-02T06:13:20;9.90;;;6.50;;
6378;SDS011;3222;48.858;10.128;2023-07-02T06:15:45;10.97;;;6.90;;
6378;SDS011;3222;48.858;10.128;2023-07-02T06:18:12;10.50;;;7.20;;
6378;SDS011;3222;48.858;10.128;2023-07-02T06:20:38;10.27;;;6.83;;
6378;SDS011;3222;48.858;10.128;2023-07-02T06:23:04;9.60;;;6.90;;
6378;SDS011;3222;48.858;10.128;2023-07-02T06:25:30;11.13;;;6.77;;
6378;SDS011;3222;48.858;10.128;2023-07-02T06:27:56;11.67;;;6.73;;
6378;SDS011;3222;48.858;10.128;2023-07-02T06:30:26;11.00;;;6.80;;
6378;SDS011;3222;48.858;10.128;2023-07-02T06:32:53;11.80;;;6.90;;
6378;SDS011;3222;48.858;10.128;2023-07-02T06:35:19;11.57;;;6.47;;
6378;SDS011;3222;48.858;10.128;2023-07-02T06:37:45;11.33;;;6.93;;
6378;SDS011;3222;48.858;10.128;2023-07-02T06:40:11;9.70;;;5.90;;
6378;SDS011;3222;48.858;10.128;2023-07-02T06:42:37;9.50;;;6.50;;
6378;SDS011;3222;48.858;10.128;2023-07-02T06:45:03;7.90;;;5.87;;
6378;SDS011;3222;48.858;10.128;2023-07-02T06:47:30;8.23;;;5.63;;
6378;SDS011;3222;48.858;10.128;2023-07-02T06:49:56;12.67;;;6.03;;
6378;SDS011;3222;48.858;10.128;2023-07-02T06:52:23;11.70;;;5.97;;
6378;SDS011;3222;48.858;10.128;2023-07-02T06:54:49;9.03;;;6.30;;
6378;SDS011;3222;48.858;10.128;2023-07-02T06:57:14;10.17;;;5.70;;
6378;SDS011;3222;48.858;10.128;2023-07-02T06:59:40;9.87;;;5.67;;
6378;SDS011;3222;48.858;10.128;2023-07-02T07:02:06;7.60;;;5.70;;
6378;SDS011;3222;48.858;10.128;2023-07-02T07:04:32;7.80;;;5.53;;
6378;SDS011;3222;48.858;10.128;2023-07-02T07:06:59;9.37;;;5.80;;
6378;SDS011;3222;48.858;10.128;2023-07-02T07:09:28;8.40;;;6.17;;
6378;SDS011;3222;48.858;10.128;2023-07-02T07:11:54;10.40;;;7.13;;
6378;SDS011;3222;48.858;10.128;2023-07-02T07:14:20;14.67;;;10.33;;
6378;SDS011;3222;48.858;10.128;2023-07-02T07:16:46;14.77;;;9.93;;
6378;SDS011;3222;48.858;10.128;2023-07-02T07:19:12;13.20;;;8.40;;
6378;SDS011;3222;48.858;10.128;2023-07-02T07:21:38;10.90;;;8.07;;
6378;SDS011;3222;48.858;10.128;2023-07-02T07:24:05;8.73;;;6.37;;
6378;SDS011;3222;48.858;10.128;2023-07-02T07:26:31;8.83;;;6.37;;
6378;SDS011;3222;48.858;10.128;2023-07-02T07:28:57;12.73;;;7.20;;
6378;SDS011;3222;48.858;10.128;2023-07-02T07:31:23;10.67;;;6.63;;
6378;SDS011;3222;48.858;10.128;2023-07-02T07:33:49;11.30;;;6.33;;
6378;SDS011;3222;48.858;10.128;2023-07-02T07:36:15;11.37;;;6.23;;
6378;SDS011;3222;48.858;10.128;2023-07-02T07:38:42;8.87;;;6.63;;
6378;SDS011;3222;48.858;10.128;2023-07-02T07:41:09;11.27;;;6.70;;
6378;SDS011;3222;48.858;10.128;2023-07-02T07:43:35;10.00;;;7.27;;
6378;SDS011;3222;48.858;10.128;2023-07-02T07:46:01;12.30;;;7.27;;
6378;SDS011;3222;48.858;10.128;2023-07-02T07:48:26;13.37;;;7.70;;
6378;SDS011;3222;48.858;10.128;2023-07-02T07:50:52;11.43;;;7.40;;
6378;SDS011;3222;48.858;10.128;2023-07-02T07:53:18;11.63;;;8.03;;
6378;SDS011;3222;48.858;10.128;2023-07-02T07:55:43;13.83;;;7.93;;
6378;SDS011;3222;48.858;10.128;2023-07-02T07:58:09;13.17;;;8.10;;
6378;SDS011;3222;48.858;10.128;2023-07-02T08:00:35;15.33;;;8.87;;
6378;SDS011;3222;48.858;10.128;2023-07-02T08:03:01;13.20;;;8.97;;
6378;SDS011;3222;48.858;10.128;2023-07-02T08:05:28;17.20;;;9.27;;
6378;SDS011;3222;48.858;10.128;2023-07-02T08:07:55;12.80;;;8.40;;
6378;SDS011;3222;48.858;10.128;2023-07-02T08:10:21;13.70;;;9.00;;
6378;SDS011;3222;48.858;10.128;2023-07-02T08:12:46;14.37;;;8.60;;
6378;SDS011;3222;48.858;10.128;2023-07-02T08:15:13;14.53;;;8.80;;
6378;SDS011;3222;48.858;10.128;2023-07-02T08:17:39;13.60;;;8.33;;
6378;SDS011;3222;48.858;10.128;2023-07-02T08:20:04;14.13;;;8.63;;
6378;SDS011;3222;48.858;10.128;2023-07-02T08:22:34;14.47;;;8.70;;
6378;SDS011;3222;48.858;10.128;2023-07-02T08:25:04;13.67;;;8.87;;
6378;SDS011;3222;48.858;10.128;2023-07-02T08:27:30;13.57;;;8.30;;
6378;SDS011;3222;48.858;10.128;2023-07-02T08:29:57;15.23;;;8.87;;
6378;SDS011;3222;48.858;10.128;2023-07-02T08:32:24;14.70;;;9.53;;
6378;SDS011;3222;48.858;10.128;2023-07-02T08:34:49;14.07;;;8.50;;
6378;SDS011;3222;48.858;10.128;2023-07-02T08:37:19;13.83;;;9.50;;
6378;SDS011;3222;48.858;10.128;2023-07-02T08:39:46;13.30;;;8.20;;
6378;SDS011;3222;48.858;10.128;2023-07-02T08:42:13;11.17;;;7.90;;
6378;SDS011;3222;48.858;10.128;2023-07-02T08:44:39;13.90;;;8.37;;
6378;SDS011;3222;48.858;10.128;2023-07-02T08:47:07;14.00;;;8.50;;
6378;SDS011;3222;48.858;10.128;2023-07-02T08:49:33;13.70;;;8.63;;
6378;SDS011;3222;48.858;10.128;2023-07-02T08:51:59;13.33;;;8.57;;
6378;SDS011;3222;48.858;10.128;2023-07-02T08:54:25;17.13;;;8.87;;
6378;SDS011;3222;48.858;10.128;2023-07-02T08:56:50;13.37;;;8.43;;
6378;SDS011;3222;48.858;10.128;2023-07-02T08:59:16;12.40;;;8.23;;
6378;SDS011;3222;48.858;10.128;2023-07-02T09:01:49;16.73;;;8.57;;
6378;SDS011;3222;48.858;10.128;2023-07-02T09:04:17;15.57;;;8.80;;
6378;SDS011;3222;48.858;10.128;2023-07-02T09:06:49;15.53;;;8.33;;
6378;SDS011;3222;48.858;10.128;2023-07-02T09:09:16;13.10;;;9.30;;
6378;SDS011;3222;48.858;10.128;2023-07-02T09:11:46;15.10;;;9.27;;
6378;SDS011;3222;48.858;10.128;2023-07-02T09:14:23;15.43;;;9.53;;
6378;SDS011;3222;48.858;10.128;2023-07-02T09:17:01;16.20;;;9.87;;
6378;SDS011;3222;48.858;10.128;2023-07-02T09:19:36;16.33;;;8.97;;
6378;SDS011;3222;48.858;10.128;2023-07-02T09:22:15;17.13;;;9.60;;
6378;SDS011;3222;48.858;10.128;2023-07-02T09:24:41;19.07;;;10.17;;
6378;SDS011;3222;48.858;10.128;2023-07-02T09:27:07;13.63;;;9.50;;
6378;SDS011;3222;48.858;10.128;2023-07-02T09:29:33;13.73;;;9.97;;
6378;SDS011;3222;48.858;10.128;2023-07-02T09:31:59;19.80;;;10.70;;
6378;SDS011;3222;48.858;10.128;2023-07-02T09:34:27;17.67;;;9.97;;
6378;SDS011;3222;48.858;10.128;2023-07-02T09:36:58;16.57;;;9.13;;
6378;SDS011;3222;48.858;10.128;2023-07-02T09:39:30;17.50;;;9.60;;
6378;SDS011;3222;48.858;10.128;2023-07-02T09:41:57;13.80;;;9.40;;
6378;SDS011;3222;48.858;10.128;2023-07-02T09:44:26;21.50;;;10.37;;
6378;SDS011;3222;48.858;10.128;2023-07-02T09:46:55;14.97;;;9.77;;
6378;SDS011;3222;48.858;10.128;2023-07-02T09:49:33;14.30;;;9.67;;
6378;SDS011;3222;48.858;10.128;2023-07-02T09:52:14;15.53;;;10.23;;
6378;SDS011;3222;48.858;10.128;2023-07-02T09:54:41;16.97;;;9.90;;
6378;SDS011;3222;48.858;10.128;2023-07-02T09:57:07;18.40;;;10.20;;
6378;SDS011;3222;48.858;10.128;2023-07-02T09:59:33;17.20;;;10.30;;
6378;SDS011;3222;48.858;10.128;2023-07-02T10:01:59;16.50;;;10.40;;
6378;SDS011;3222;48.858;10.128;2023-07-02T10:04:25;16.53;;;10.13;;
6378;SDS011;3222;48.858;10.128;2023-07-02T10:06:52;18.43;;;10.80;;
6378;SDS011;3222;48.858;10.128;2023-07-02T10:09:20;14.97;;;10.40;;
6378;SDS011;3222;48.858;10.128;2023-07-02T10:11:58;13.13;;;9.40;;
6378;SDS011;3222;48.858;10.128;2023-07-02T10:14:24;16.07;;;10.27;;
6378;SDS011;3222;48.858;10.128;2023-07-02T10:19:19;17.20;;;9.73;;
6378;SDS011;3222;48.858;10.128;2023-07-02T10:21:45;19.97;;;11.07;;
6378;SDS011;3222;48.858;10.128;2023-07-02T10:24:15;17.17;;;10.10;;
6378;SDS011;3222;48.858;10.128;2023-07-02T10:26:55;17.17;;;10.20;;
6378;SDS011;3222;48.858;10.128;2023-07-02T10:29:25;16.03;;;10.27;;
6378;SDS011;3222;48.858;10.128;2023-07-02T10:31:53;14.27;;;10.37;;
6378;SDS011;3222;48.858;10.128;2023-07-02T10:36:56;16.17;;;10.43;;
6378;SDS011;3222;48.858;10.128;2023-07-02T10:39:22;18.83;;;11.07;;
6378;SDS011;3222;48.858;10.128;2023-07-02T10:41:48;14.97;;;9.93;;
6378;SDS011;3222;48.858;10.128;2023-07-02T10:44:14;16.33;;;10.53;;
6378;SDS011;3222;48.858;10.128;2023-07-02T10:46:44;13.40;;;9.97;;
6378;SDS011;3222;48.858;10.128;2023-07-02T10:49:14;17.87;;;10.60;;
6378;SDS011;3222;48.858;10.128;2023-07-02T10:51:42;14.83;;;9.90;;
6378;SDS011;3222;48.858;10.128;2023-07-02T10:54:07;14.77;;;9.77;;
6378;SDS011;3222;48.858;10.128;2023-07-02T10:56:34;16.90;;;9.80;;
6378;SDS011;3222;48.858;10.128;2023-07-02T10:59:00;21.13;;;10.33;;
6378;SDS011;3222;48.858;10.128;2023-07-02T11:01:28;13.87;;;9.80;;
6378;SDS011;3222;48.858;10.128;2023-07-02T11:03:58;14.13;;;9.20;;
6378;SDS011;3222;48.858;10.128;2023-07-02T11:06:25;16.10;;;9.27;;
6378;SDS011;3222;48.858;10.128;2023-07-02T11:08:55;14.70;;;10.43;;
6378;SDS011;3222;48.858;10.128;2023-07-02T11:11:22;16.13;;;9.43;;
6378;SDS011;3222;48.858;10.128;2023-07-02T11:13:49;13.70;;;9.00;;
6378;SDS011;3222;48.858;10.128;2023-07-02T11:16:23;15.17;;;9.97;;
6378;SDS011;3222;48.858;10.128;2023-07-02T11:19:05;14.70;;;9.23;;
6378;SDS011;3222;48.858;10.128;2023-07-02T11:21:35;15.17;;;9.70;;
6378;SDS011;3222;48.858;10.128;2023-07-02T11:24:02;20.27;;;10.70;;
6378;SDS011;3222;48.858;10.128;2023-07-02T11:26:39;14.57;;;9.70;;
6378;SDS011;3222;48.858;10.128;2023-07-02T11:29:12;15.50;;;9.63;;
6378;SDS011;3222;48.858;10.128;2023-07-02T11:31:43;15.83;;;9.30;;
6378;SDS011;3222;48.858;10.128;2023-07-02T11:34:15;14.37;;;8.90;;
6378;SDS011;3222;48.858;10.128;2023-07-02T11:36:46;14.30;;;9.17;;
6378;SDS011;3222;48.858;10.128;2023-07-02T11:39:13;16.77;;;9.07;;
6378;SDS011;3222;48.858;10.128;2023-07-02T11:41:41;17.07;;;9.70;;
6378;SDS011;3222;48.858;10.128;2023-07-02T11:44:10;13.17;;;9.33;;
6378;SDS011;3222;48.858;10.128;2023-07-02T11:46:36;14.17;;;9.60;;
6378;SDS011;3222;48.858;10.128;2023-07-02T11:49:02;14.53;;;9.27;;
6378;SDS011;3222;48.858;10.128;2023-07-02T11:51:36;13.80;;;9.73;;
6378;SDS011;3222;48.858;10.128;2023-07-02T11:54:03;18.63;;;9.73;;
6378;SDS011;3222;48.858;10.128;2023-07-02T11:56:29;14.70;;;10.23;;
6378;SDS011;3222;48.858;10.128;2023-07-02T11:58:56;14.50;;;9.93;;
6378;SDS011;3222;48.858;10.128;2023-07-02T12:01:22;13.23;;;9.17;;
6378;SDS011;3222;48.858;10.128;2023-07-02T12:03:48;15.47;;;9.70;;
6378;SDS011;3222;48.858;10.128;2023-07-02T12:06:13;15.23;;;9.47;;
6378;SDS011;3222;48.858;10.128;2023-07-02T12:08:39;16.90;;;10.13;;
6378;SDS011;3222;48.858;10.128;2023-07-02T12:11:05;15.90;;;10.83;;
6378;SDS011;3222;48.858;10.128;2023-07-02T12:13:31;16.57;;;10.17;;
6378;SDS011;3222;48.858;10.128;2023-07-02T12:15:57;16.90;;;10.80;;
6378;SDS011;3222;48.858;10.128;2023-07-02T12:18:22;16.87;;;10.17;;
6378;SDS011;3222;48.858;10.128;2023-07-02T12:20:48;15.77;;;10.87;;
6378;SDS011;3222;48.858;10.128;2023-07-02T12:23:14;15.43;;;10.10;;
6378;SDS011;3222;48.858;10.128;2023-07-02T12:25:39;17.90;;;10.60;;
6378;SDS011;3222;48.858;10.128;2023-07-02T12:28:05;16.77;;;11.37;;
6378;SDS011;3222;48.858;10.128;2023-07-02T12:30:31;15.27;;;10.70;;
6378;SDS011;3222;48.858;10.128;2023-07-02T12:32:57;19.73;;;11.80;;
6378;SDS011;3222;48.858;10.128;2023-07-02T12:35:23;17.20;;;11.18;;
6378;SDS011;3222;48.858;10.128;2023-07-02T12:37:50;17.17;;;11.20;;
6378;SDS011;3222;48.858;10.128;2023-07-02T12:40:18;16.20;;;11.27;;
6378;SDS011;3222;48.858;10.128;2023-07-02T12:42:46;19.00;;;11.23;;
6378;SDS011;3222;48.858;10.128;2023-07-02T12:45:13;16.73;;;11.10;;
6378;SDS011;3222;48.858;10.128;2023-07-02T12:47:40;15.27;;;10.77;;
6378;SDS011;3222;48.858;10.128;2023-07-02T12:50:07;16.30;;;11.40;;
6378;SDS011;3222;48.858;10.128;2023-07-02T12:52:34;18.10;;;11.00;;
6378;SDS011;3222;48.858;10.128;2023-07-02T12:55:00;17.93;;;11.17;;
6378;SDS011;3222;48.858;10.128;2023-07-02T12:57:27;15.83;;;11.27;;
6378;SDS011;3222;48.858;10.128;2023-07-02T12:59:53;16.07;;;11.27;;
6378;SDS011;3222;48.858;10.128;2023-07-02T13:02:20;18.57;;;11.33;;
6378;SDS011;3222;48.858;10.128;2023-07-02T13:04:49;17.87;;;11.10;;
6378;SDS011;3222;48.858;10.128;2023-07-02T13:07:15;15.33;;;10.67;;
6378;SDS011;3222;48.858;10.128;2023-07-02T13:09:42;18.13;;;11.33;;
6378;SDS011;3222;48.858;10.128;2023-07-02T13:12:08;17.70;;;10.93;;
6378;SDS011;3222;48.858;10.128;2023-07-02T13:14:35;20.03;;;10.70;;
6378;SDS011;3222;48.858;10.128;2023-07-02T13:17:01;18.73;;;10.23;;
6378;SDS011;3222;48.858;10.128;2023-07-02T13:19:30;16.80;;;10.47;;
6378;SDS011;3222;48.858;10.128;2023-07-02T13:21:57;18.13;;;11.57;;
6378;SDS011;3222;48.858;10.128;2023-07-02T13:24:23;14.70;;;10.85;;
6378;SDS011;3222;48.858;10.128;2023-07-02T13:26:49;17.95;;;10.25;;
6378;SDS011;3222;48.858;10.128;2023-07-02T13:29:16;16.20;;;9.93;;
6378;SDS011;3222;48.858;10.128;2023-07-02T13:31:42;15.60;;;10.27;;
6378;SDS011;3222;48.858;10.128;2023-07-02T13:34:07;13.50;;;10.33;;
6378;SDS011;3222;48.858;10.128;2023-07-02T13:36:33;14.90;;;10.63;;
6378;SDS011;3222;48.858;10.128;2023-07-02T13:38:58;18.70;;;11.43;;
6378;SDS011;3222;48.858;10.128;2023-07-02T13:41:25;15.67;;;10.30;;
6378;SDS011;3222;48.858;10.128;2023-07-02T13:43:51;15.63;;;10.67;;
6378;SDS011;3222;48.858;10.128;2023-07-02T13:46:16;14.93;;;10.00;;
6378;SDS011;3222;48.858;10.128;2023-07-02T13:48:42;15.05;;;10.55;;
6378;SDS011;3222;48.858;10.128;2023-07-02T13:51:08;16.27;;;10.75;;
6378;SDS011;3222;48.858;10.128;2023-07-02T13:53:34;16.43;;;11.37;;
6378;SDS011;3222;48.858;10.128;2023-07-02T13:56:01;14.80;;;10.97;;
6378;SDS011;3222;48.858;10.128;2023-07-02T14:01:11;15.30;;;10.67;;
6378;SDS011;3222;48.858;10.128;2023-07-02T14:03:37;18.00;;;11.63;;
6378;SDS011;3222;48.858;10.128;2023-07-02T14:06:02;17.20;;;10.65;;
6378;SDS011;3222;48.858;10.128;2023-07-02T14:08:29;15.73;;;10.68;;
6378;SDS011;3222;48.858;10.128;2023-07-02T14:10:55;14.98;;;10.77;;
6378;SDS011;3222;48.858;10.128;2023-07-02T14:13:20;20.83;;;11.25;;
6378;SDS011;3222;48.858;10.128;2023-07-02T14:15:47;19.23;;;11.07;;
6378;SDS011;3222;48.858;10.128;2023-07-02T14:18:14;16.05;;;10.90;;
6378;SDS011;3222;48.858;10.128;2023-07-02T14:20:39;19.38;;;10.57;;
6378;SDS011;3222;48.858;10.128;2023-07-02T14:23:05;19.98;;;11.27;;
6378;SDS011;3222;48.858;10.128;2023-07-02T14:25:32;15.60;;;10.63;;
6378;SDS011;3222;48.858;10.128;2023-07-02T14:27:57;18.50;;;11.35;;
6378;SDS011;3222;48.858;10.128;2023-07-02T14:30:23;14.80;;;10.50;;
6378;SDS011;3222;48.858;10.128;2023-07-02T14:32:49;15.15;;;10.88;;
6378;SDS011;3222;48.858;10.128;2023-07-02T14:35:15;13.17;;;10.17;;
6378;SDS011;3222;48.858;10.128;2023-07-02T14:37:41;18.02;;;11.82;;
6378;SDS011;3222;48.858;10.128;2023-07-02T14:40:06;14.93;;;10.48;;
6378;SDS011;3222;48.858;10.128;2023-07-02T14:42:33;15.88;;;11.48;;
6378;SDS011;3222;48.858;10.128;2023-07-02T14:44:59;19.23;;;11.18;;
6378;SDS011;3222;48.858;10.128;2023-07-02T14:47:25;18.95;;;12.00;;
6378;SDS011;3222;48.858;10.128;2023-07-02T14:49:51;16.38;;;10.98;;
6378;SDS011;3222;48.858;10.128;2023-07-02T14:52:17;18.33;;;11.45;;
6378;SDS011;3222;48.858;10.128;2023-07-02T14:54:44;16.98;;;10.23;;
6378;SDS011;3222;48.858;10.128;2023-07-02T14:57:10;15.15;;;10.85;;